createdAt,value
2016-05-02T00:00:04.538Z,9.3
2016-05-02T00:00:14.538Z,9.3
2016-05-02T00:00:24.399Z,9.3
2016-05-02T00:00:34.540Z,9.3
2016-05-02T00:00:44.524Z,9.3
2016-05-02T00:00:54.540Z,9.3
2016-05-02T00:01:04.540Z,9.3
2016-05-02T00:01:14.196Z,9.3
2016-05-02T00:01:24.496Z,9.3
2016-05-02T00:01:34.340Z,9.3
2016-05-02T00:01:44.340Z,9.3
2016-05-02T00:01:54.340Z,9.3
2016-05-02T00:02:04.496Z,9.3
2016-05-02T00:02:14.308Z,9.3
2016-05-02T00:02:24.483Z,9.3
2016-05-02T00:02:34.468Z,9.3
2016-05-02T00:02:44.483Z,9.3
2016-05-02T00:02:54.468Z,9.3
2016-05-02T00:03:04.468Z,9.3
2016-05-02T00:03:14.296Z,9.3
2016-05-02T00:03:24.283Z,9.3
2016-05-02T00:03:34.439Z,9.3
2016-05-02T00:03:44.439Z,9.3
2016-05-02T00:03:54.439Z,9.3
2016-05-02T00:04:04.424Z,9.3
2016-05-02T00:04:14.439Z,9.3
2016-05-02T00:04:24.410Z,9.3
2016-05-02T00:04:34.410Z,9.3
2016-05-02T00:04:44.410Z,9.3
2016-05-02T00:04:54.394Z,9.3
2016-05-02T00:05:04.394Z,9.3
2016-05-02T00:05:14.394Z,9.3
2016-05-02T00:05:24.382Z,9.3
2016-05-02T00:05:34.226Z,9.3
2016-05-02T00:05:44.366Z,9.3
2016-05-02T00:05:54.351Z,9.3
2016-05-02T00:06:04.210Z,9.3
2016-05-02T00:06:14.366Z,9.3
2016-05-02T00:06:24.400Z,9.3
2016-05-02T00:06:34.354Z,9.3
2016-05-02T00:06:44.182Z,9.3
2016-05-02T00:06:54.197Z,9.3
2016-05-02T00:07:04.338Z,9.2
2016-05-02T00:07:14.322Z,9.2
2016-05-02T00:07:24.168Z,9.2
2016-05-02T00:07:34.340Z,9.2
2016-05-02T00:07:44.309Z,9.2
2016-05-02T00:07:54.168Z,9.2
2016-05-02T00:08:04.324Z,9.2
2016-05-02T00:08:14.293Z,9.2
2016-05-02T00:08:24.155Z,9.2
2016-05-02T00:08:34.280Z,9.2
2016-05-02T00:08:44.280Z,9.2
2016-05-02T00:08:54.280Z,9.2
2016-05-02T00:09:04.124Z,9.2
2016-05-02T00:09:14.265Z,9.2
2016-05-02T00:09:24.252Z,9.2
2016-05-02T00:09:34.268Z,9.2
2016-05-02T00:09:44.252Z,9.2
2016-05-02T00:09:54.237Z,9.2
2016-05-02T00:10:04.237Z,9.2
2016-05-02T00:10:14.080Z,9.2
2016-05-02T00:10:24.223Z,9.2
2016-05-02T00:10:34.239Z,9.2
2016-05-02T00:10:44.223Z,9.2
2016-05-02T00:10:54.223Z,9.2
2016-05-02T00:11:04.223Z,9.2
2016-05-02T00:11:14.207Z,9.2
2016-05-02T00:11:24.210Z,9.2
2016-05-02T00:11:34.195Z,9.2
2016-05-02T00:11:44.195Z,9.2
2016-05-02T00:11:54.195Z,9.2
2016-05-02T00:12:04.038Z,9.2
2016-05-02T00:12:14.179Z,9.2
2016-05-02T00:12:24.182Z,9.2
2016-05-02T00:12:34.182Z,9.2
2016-05-02T00:12:44.166Z,9.2
2016-05-02T00:12:54.166Z,9.2
2016-05-02T00:13:04.151Z,9.2
2016-05-02T00:13:13.995Z,9.1
2016-05-02T00:13:23.997Z,9.1
2016-05-02T00:13:33.981Z,9.2
2016-05-02T00:13:43.981Z,9.2
2016-05-02T00:13:53.981Z,9.1
2016-05-02T00:14:03.965Z,9.2
2016-05-02T00:14:14.122Z,9.1
2016-05-02T00:14:23.952Z,9.2
2016-05-02T00:14:34.108Z,9.1
2016-05-02T00:14:43.952Z,9.2
2016-05-02T00:14:54.108Z,9.1
2016-05-02T00:15:04.092Z,9.1
2016-05-02T00:15:14.077Z,9.1
2016-05-02T00:15:23.940Z,9.1
2016-05-02T00:15:33.940Z,9.1
2016-05-02T00:15:44.065Z,9.1
2016-05-02T00:15:54.065Z,9.1
2016-05-02T00:16:04.065Z,9.1
2016-05-02T00:16:13.893Z,9.1
2016-05-02T00:16:23.896Z,9.1
2016-05-02T00:16:33.896Z,9.1
2016-05-02T00:16:44.037Z,9.1
2016-05-02T00:16:54.037Z,9.1
2016-05-02T00:17:04.037Z,9.1
2016-05-02T00:17:13.865Z,9.1
2016-05-02T00:17:24.023Z,9.1
2016-05-02T00:17:33.851Z,9.1
2016-05-02T00:17:44.008Z,9.1
2016-05-02T00:17:54.023Z,9.1
2016-05-02T00:18:04.008Z,9.1
2016-05-02T00:18:13.851Z,9.1
2016-05-02T00:18:23.995Z,9.1
2016-05-02T00:18:33.839Z,9.1
2016-05-02T00:18:43.979Z,9.1
2016-05-02T00:18:53.964Z,9.1
2016-05-02T00:19:03.823Z,9.1
2016-05-02T00:19:13.807Z,9.1
2016-05-02T00:19:23.950Z,9.1
2016-05-02T00:19:33.950Z,9.1
2016-05-02T00:19:43.809Z,9.1
2016-05-02T00:19:53.966Z,9.1
2016-05-02T00:20:03.481Z,9.1
2016-05-02T00:20:13.950Z,9.1
2016-05-02T00:20:23.953Z,9.1
2016-05-02T00:20:33.937Z,9.1
2016-05-02T00:20:43.922Z,9.1
2016-05-02T00:20:53.937Z,9.1
2016-05-02T00:21:04.156Z,9.1
2016-05-02T00:21:13.922Z,9.1
2016-05-02T00:21:24.080Z,9.1
2016-05-02T00:21:33.768Z,9.1
2016-05-02T00:21:43.893Z,9.1
2016-05-02T00:21:53.752Z,9.1
2016-05-02T00:22:03.580Z,9.1
2016-05-02T00:22:13.861Z,9.1
2016-05-02T00:22:23.865Z,9.1
2016-05-02T00:22:33.865Z,9.1
2016-05-02T00:22:43.850Z,9.1
2016-05-02T00:22:53.693Z,9.1
2016-05-02T00:23:03.850Z,9.1
2016-05-02T00:23:13.850Z,9.1
2016-05-02T00:23:23.695Z,9.1
2016-05-02T00:23:33.836Z,9.1
2016-05-02T00:23:43.820Z,9.1
2016-05-02T00:23:53.836Z,9.1
2016-05-02T00:24:03.805Z,9.1
2016-05-02T00:24:13.805Z,9.1
2016-05-02T00:24:23.652Z,9.1
2016-05-02T00:24:33.652Z,9.1
2016-05-02T00:24:43.808Z,9.1
2016-05-02T00:24:53.808Z,9.1
2016-05-02T00:25:03.636Z,9.1
2016-05-02T00:25:13.777Z,9.1
2016-05-02T00:25:23.623Z,9.1
2016-05-02T00:25:33.764Z,9.1
2016-05-02T00:25:43.780Z,9.1
2016-05-02T00:25:53.764Z,9.1
2016-05-02T00:26:03.608Z,9.1
2016-05-02T00:26:13.764Z,9.1
2016-05-02T00:26:23.750Z,9.1
2016-05-02T00:26:33.750Z,9.1
2016-05-02T00:26:43.735Z,9.1
2016-05-02T00:26:53.594Z,9.1
2016-05-02T00:27:03.578Z,9.1
2016-05-02T00:27:13.719Z,9.1
2016-05-02T00:27:23.549Z,9.1
2016-05-02T00:27:33.705Z,9.1
2016-05-02T00:27:43.721Z,9.1
2016-05-02T00:27:53.705Z,9
2016-05-02T00:28:03.705Z,9
2016-05-02T00:28:13.721Z,9
2016-05-02T00:28:23.677Z,9
2016-05-02T00:28:33.380Z,9
2016-05-02T00:28:43.677Z,9
2016-05-02T00:28:53.662Z,9
2016-05-02T00:29:03.662Z,9
2016-05-02T00:29:13.677Z,9
2016-05-02T00:29:23.681Z,9
2016-05-02T00:29:33.525Z,9
2016-05-02T00:29:43.650Z,9
2016-05-02T00:29:53.494Z,9
2016-05-02T00:30:03.666Z,9
2016-05-02T00:30:13.650Z,9
2016-05-02T00:30:23.621Z,9
2016-05-02T00:30:33.621Z,9
2016-05-02T00:30:43.621Z,9
2016-05-02T00:30:53.605Z,9
2016-05-02T00:31:03.605Z,9
2016-05-02T00:31:13.308Z,9
2016-05-02T00:31:23.436Z,9
2016-05-02T00:31:33.436Z,9
2016-05-02T00:31:43.592Z,9
2016-05-02T00:31:53.592Z,9
2016-05-02T00:32:03.421Z,9
2016-05-02T00:32:13.561Z,9
2016-05-02T00:32:23.407Z,9
2016-05-02T00:32:33.563Z,9
2016-05-02T00:32:43.391Z,9
2016-05-02T00:32:53.548Z,9
2016-05-02T00:33:03.563Z,9
2016-05-02T00:33:13.548Z,9
2016-05-02T00:33:23.535Z,9
2016-05-02T00:33:33.379Z,9
2016-05-02T00:33:43.379Z,9
2016-05-02T00:33:53.363Z,9
2016-05-02T00:34:03.519Z,9
2016-05-02T00:34:13.347Z,9
2016-05-02T00:34:23.349Z,9
2016-05-02T00:34:33.506Z,9
2016-05-02T00:34:43.506Z,9
2016-05-02T00:34:53.506Z,9
2016-05-02T00:35:03.490Z,9
2016-05-02T00:35:13.334Z,9
2016-05-02T00:35:23.321Z,9
2016-05-02T00:35:33.446Z,9
2016-05-02T00:35:43.306Z,9
2016-05-02T00:35:53.462Z,9
2016-05-02T00:36:03.743Z,9
2016-05-02T00:36:13.743Z,9
2016-05-02T00:36:23.980Z,9
2016-05-02T00:36:34.277Z,9
2016-05-02T00:36:43.434Z,9
2016-05-02T00:36:53.418Z,9
2016-05-02T00:37:03.449Z,9
2016-05-02T00:37:13.434Z,9
2016-05-02T00:37:23.405Z,9
2016-05-02T00:37:33.249Z,9
2016-05-02T00:37:43.249Z,9
2016-05-02T00:37:53.249Z,9
2016-05-02T00:38:03.249Z,9
2016-05-02T00:38:13.265Z,8.9
2016-05-02T00:38:23.392Z,8.9
2016-05-02T00:38:33.220Z,8.9
2016-05-02T00:38:43.376Z,8.9
2016-05-02T00:38:53.345Z,9
2016-05-02T00:39:03.376Z,8.9
2016-05-02T00:39:13.376Z,8.9
2016-05-02T00:39:23.348Z,8.9
2016-05-02T00:39:33.363Z,8.9
2016-05-02T00:39:43.363Z,8.9
2016-05-02T00:39:53.332Z,8.9
2016-05-02T00:40:03.317Z,8.9
2016-05-02T00:40:13.160Z,8.9
2016-05-02T00:40:23.319Z,8.9
2016-05-02T00:40:33.162Z,8.9
2016-05-02T00:40:43.162Z,8.9
2016-05-02T00:40:53.303Z,8.9
2016-05-02T00:41:03.303Z,8.9
2016-05-02T00:41:13.287Z,8.9
2016-05-02T00:41:23.291Z,8.9
2016-05-02T00:41:33.135Z,8.9
2016-05-02T00:41:43.291Z,8.9
2016-05-02T00:41:53.276Z,8.9
2016-05-02T00:42:03.276Z,8.9
2016-05-02T00:42:13.104Z,8.9
2016-05-02T00:42:23.278Z,8.9
2016-05-02T00:42:33.262Z,8.9
2016-05-02T00:42:43.246Z,8.9
2016-05-02T00:42:53.121Z,8.9
2016-05-02T00:43:03.231Z,8.9
2016-05-02T00:43:13.090Z,8.9
2016-05-02T00:43:23.218Z,8.9
2016-05-02T00:43:33.062Z,8.9
2016-05-02T00:43:43.218Z,8.9
2016-05-02T00:43:53.234Z,8.9
2016-05-02T00:44:03.203Z,8.9
2016-05-02T00:44:13.218Z,8.9
2016-05-02T00:44:23.205Z,8.9
2016-05-02T00:44:32.876Z,8.9
2016-05-02T00:44:43.189Z,8.9
2016-05-02T00:44:53.173Z,8.9
2016-05-02T00:45:03.173Z,8.9
2016-05-02T00:45:13.173Z,8.9
2016-05-02T00:45:22.864Z,8.9
2016-05-02T00:45:33.161Z,8.9
2016-05-02T00:45:43.145Z,8.9
2016-05-02T00:45:53.145Z,8.9
2016-05-02T00:46:03.161Z,8.9
2016-05-02T00:46:13.145Z,8.9
2016-05-02T00:46:23.148Z,8.9
2016-05-02T00:46:33.132Z,8.9
2016-05-02T00:46:43.132Z,8.9
2016-05-02T00:46:53.132Z,8.9
2016-05-02T00:47:03.117Z,8.9
2016-05-02T00:47:13.101Z,8.9
2016-05-02T00:47:23.119Z,8.9
2016-05-02T00:47:32.931Z,8.9
2016-05-02T00:47:43.119Z,8.9
2016-05-02T00:47:52.791Z,8.9
2016-05-02T00:48:02.916Z,8.9
2016-05-02T00:48:12.916Z,8.9
2016-05-02T00:48:22.934Z,8.8
2016-05-02T00:48:33.075Z,8.9
2016-05-02T00:48:43.059Z,8.9
2016-05-02T00:48:53.075Z,8.9
2016-05-02T00:49:03.059Z,8.9
2016-05-02T00:49:12.903Z,8.9
2016-05-02T00:49:23.062Z,8.9
2016-05-02T00:49:33.031Z,8.8
2016-05-02T00:49:43.031Z,8.9
2016-05-02T00:49:52.875Z,8.8
2016-05-02T00:50:03.031Z,8.9
2016-05-02T00:50:13.031Z,8.8
2016-05-02T00:50:23.018Z,8.9
2016-05-02T00:50:33.018Z,8.9
2016-05-02T00:50:43.003Z,8.9
2016-05-02T00:50:53.284Z,8.9
2016-05-02T00:51:03.190Z,8.8
2016-05-02T00:51:12.706Z,8.8
2016-05-02T00:51:23.036Z,8.8
2016-05-02T00:51:32.989Z,8.8
2016-05-02T00:51:42.974Z,8.8
2016-05-02T00:51:52.833Z,8.8
2016-05-02T00:52:02.958Z,8.8
2016-05-02T00:52:12.974Z,8.8
2016-05-02T00:52:22.789Z,8.8
2016-05-02T00:52:32.789Z,8.8
2016-05-02T00:52:42.945Z,8.8
2016-05-02T00:52:52.930Z,8.8
2016-05-02T00:53:02.930Z,8.8
2016-05-02T00:53:12.930Z,8.8
2016-05-02T00:53:22.776Z,8.8
2016-05-02T00:53:32.917Z,8.8
2016-05-02T00:53:42.917Z,8.8
2016-05-02T00:53:52.901Z,8.8
2016-05-02T00:54:02.901Z,8.8
2016-05-02T00:54:12.886Z,8.8
2016-05-02T00:54:22.747Z,8.8
2016-05-02T00:54:32.888Z,8.8
2016-05-02T00:54:42.747Z,8.8
2016-05-02T00:54:52.716Z,8.8
2016-05-02T00:55:02.872Z,8.8
2016-05-02T00:55:12.857Z,8.8
2016-05-02T00:55:22.875Z,8.8
2016-05-02T00:55:32.875Z,8.8
2016-05-02T00:55:42.860Z,8.8
2016-05-02T00:55:52.547Z,8.8
2016-05-02T00:56:02.844Z,8.8
2016-05-02T00:56:12.828Z,8.8
2016-05-02T00:56:22.831Z,8.8
2016-05-02T00:56:32.659Z,8.8
2016-05-02T00:56:42.659Z,8.8
2016-05-02T00:56:52.847Z,8.8
2016-05-02T00:57:02.816Z,8.8
2016-05-02T00:57:12.816Z,8.8
2016-05-02T00:57:22.802Z,8.8
2016-05-02T00:57:32.630Z,8.8
2016-05-02T00:57:42.630Z,8.8
2016-05-02T00:57:52.786Z,8.8
2016-05-02T00:58:02.630Z,8.8
2016-05-02T00:58:12.771Z,8.8
2016-05-02T00:58:22.789Z,8.8
2016-05-02T00:58:32.774Z,8.8
2016-05-02T00:58:42.602Z,8.8
2016-05-02T00:58:52.446Z,8.8
2016-05-02T00:59:02.586Z,8.8
2016-05-02T00:59:12.758Z,8.8
2016-05-02T00:59:22.746Z,8.8
2016-05-02T00:59:32.574Z,8.8
2016-05-02T00:59:42.730Z,8.8
2016-05-02T00:59:52.730Z,8.7
2016-05-02T01:00:02.714Z,8.8
2016-05-02T01:00:12.714Z,8.8
2016-05-02T01:00:22.701Z,8.8
2016-05-02T01:00:32.701Z,8.8
2016-05-02T01:00:42.701Z,8.8
2016-05-02T01:00:52.544Z,8.7
2016-05-02T01:01:02.685Z,8.8
2016-05-02T01:01:12.794Z,8.8
2016-05-02T01:01:22.532Z,8.8
2016-05-02T01:01:32.672Z,8.7
2016-05-02T01:01:42.657Z,8.7
2016-05-02T01:01:52.657Z,8.7
2016-05-02T01:02:02.657Z,8.7
2016-05-02T01:02:12.672Z,8.7
2016-05-02T01:02:22.513Z,8.7
2016-05-02T01:02:32.653Z,8.7
2016-05-02T01:02:42.653Z,8.7
2016-05-02T01:02:52.653Z,8.7
2016-05-02T01:03:02.466Z,8.7
2016-05-02T01:03:12.481Z,8.7
2016-05-02T01:03:22.513Z,8.7
2016-05-02T01:03:32.685Z,8.7
2016-05-02T01:03:42.669Z,8.7
2016-05-02T01:03:52.653Z,8.7
2016-05-02T01:04:02.669Z,8.7
2016-05-02T01:04:12.638Z,8.7
2016-05-02T01:04:22.700Z,8.7
2016-05-02T01:04:32.669Z,8.7
2016-05-02T01:04:42.513Z,8.7
2016-05-02T01:04:52.513Z,8.7
2016-05-02T01:05:02.653Z,8.7
2016-05-02T01:05:12.513Z,8.7
2016-05-02T01:05:22.700Z,8.7
2016-05-02T01:05:32.716Z,8.7
2016-05-02T01:05:42.544Z,8.7
2016-05-02T01:05:52.685Z,8.7
2016-05-02T01:06:02.685Z,8.7
2016-05-02T01:06:12.747Z,8.7
2016-05-02T01:06:23.293Z,8.7
2016-05-02T01:06:33.325Z,8.7
2016-05-02T01:06:42.700Z,8.7
2016-05-02T01:06:52.715Z,8.7
2016-05-02T01:07:02.684Z,8.7
2016-05-02T01:07:12.715Z,8.7
2016-05-02T01:07:22.569Z,8.7
2016-05-02T01:07:32.709Z,8.7
2016-05-02T01:07:42.694Z,8.7
2016-05-02T01:07:52.709Z,8.7
2016-05-02T01:08:02.537Z,8.7
2016-05-02T01:08:12.694Z,8.7
2016-05-02T01:08:22.713Z,8.7
2016-05-02T01:08:32.541Z,8.7
2016-05-02T01:08:42.541Z,8.7
2016-05-02T01:08:52.666Z,8.7
2016-05-02T01:09:02.666Z,8.6
2016-05-02T01:09:12.681Z,8.6
2016-05-02T01:09:22.529Z,8.6
2016-05-02T01:09:32.685Z,8.6
2016-05-02T01:09:42.700Z,8.6
2016-05-02T01:09:52.669Z,8.6
2016-05-02T01:10:02.669Z,8.6
2016-05-02T01:10:12.669Z,8.6
2016-05-02T01:10:22.673Z,8.6
2016-05-02T01:10:32.516Z,8.6
2016-05-02T01:10:42.673Z,8.6
2016-05-02T01:10:52.657Z,8.6
2016-05-02T01:11:02.641Z,8.6
2016-05-02T01:11:12.657Z,8.6
2016-05-02T01:11:22.520Z,8.6
2016-05-02T01:11:32.379Z,8.6
2016-05-02T01:11:42.629Z,8.6
2016-05-02T01:11:52.629Z,8.6
2016-05-02T01:12:02.629Z,8.6
2016-05-02T01:12:12.629Z,8.6
2016-05-02T01:12:22.646Z,8.6
2016-05-02T01:12:32.490Z,8.6
2016-05-02T01:12:42.490Z,8.6
2016-05-02T01:12:52.646Z,8.6
2016-05-02T01:13:02.630Z,8.6
2016-05-02T01:13:12.615Z,8.6
2016-05-02T01:13:22.607Z,8.6
2016-05-02T01:13:32.592Z,8.6
2016-05-02T01:13:42.451Z,8.6
2016-05-02T01:13:52.607Z,8.6
2016-05-02T01:14:02.607Z,8.6
2016-05-02T01:14:12.592Z,8.6
2016-05-02T01:14:22.287Z,8.6
2016-05-02T01:14:32.584Z,8.6
2016-05-02T01:14:42.568Z,8.6
2016-05-02T01:14:52.256Z,8.6
2016-05-02T01:15:02.256Z,8.6
2016-05-02T01:15:12.553Z,8.6
2016-05-02T01:15:22.577Z,8.6
2016-05-02T01:15:32.421Z,8.6
2016-05-02T01:15:42.562Z,8.6
2016-05-02T01:15:52.577Z,8.6
2016-05-02T01:16:02.546Z,8.6
2016-05-02T01:16:12.390Z,8.6
2016-05-02T01:16:22.539Z,8.6
2016-05-02T01:16:32.524Z,8.6
2016-05-02T01:16:42.383Z,8.6
2016-05-02T01:16:52.524Z,8.6
2016-05-02T01:17:02.524Z,8.6
2016-05-02T01:17:12.524Z,8.6
2016-05-02T01:17:22.531Z,8.6
2016-05-02T01:17:32.531Z,8.6
2016-05-02T01:17:42.343Z,8.6
2016-05-02T01:17:52.484Z,8.6
2016-05-02T01:18:02.500Z,8.6
2016-05-02T01:18:12.484Z,8.6
2016-05-02T01:18:22.505Z,8.6
2016-05-02T01:18:32.489Z,8.6
2016-05-02T01:18:42.473Z,8.6
2016-05-02T01:18:52.489Z,8.6
2016-05-02T01:19:02.473Z,8.6
2016-05-02T01:19:12.161Z,8.6
2016-05-02T01:19:22.446Z,8.6
2016-05-02T01:19:32.430Z,8.6
2016-05-02T01:19:42.446Z,8.6
2016-05-02T01:19:52.446Z,8.6
2016-05-02T01:20:02.290Z,8.6
2016-05-02T01:20:12.430Z,8.6
2016-05-02T01:20:22.435Z,8.5
2016-05-02T01:20:32.435Z,8.5
2016-05-02T01:20:42.404Z,8.5
2016-05-02T01:20:52.279Z,8.5
2016-05-02T01:21:02.264Z,8.5
2016-05-02T01:21:12.279Z,8.5
2016-05-02T01:21:22.643Z,8.5
2016-05-02T01:21:32.596Z,8.5
2016-05-02T01:21:42.502Z,8.5
2016-05-02T01:21:52.752Z,8.5
2016-05-02T01:22:02.377Z,8.5
2016-05-02T01:22:12.377Z,8.5
2016-05-02T01:22:22.210Z,8.5
2016-05-02T01:22:32.210Z,8.5
2016-05-02T01:22:42.366Z,8.5
2016-05-02T01:22:52.351Z,8.5
2016-05-02T01:23:02.351Z,8.5
2016-05-02T01:23:12.179Z,8.5
2016-05-02T01:23:22.354Z,8.5
2016-05-02T01:23:32.166Z,8.5
2016-05-02T01:23:42.322Z,8.4
2016-05-02T01:23:52.338Z,8.4
2016-05-02T01:24:02.322Z,8.4
2016-05-02T01:24:12.338Z,8.5
2016-05-02T01:24:22.311Z,8.5
2016-05-02T01:24:32.170Z,8.4
2016-05-02T01:24:42.311Z,8.5
2016-05-02T01:24:52.280Z,8.4
2016-05-02T01:25:01.983Z,8.5
2016-05-02T01:25:12.139Z,8.5
2016-05-02T01:25:22.284Z,8.5
2016-05-02T01:25:32.284Z,8.5
2016-05-02T01:25:42.284Z,8.5
2016-05-02T01:25:52.268Z,8.5
2016-05-02T01:26:02.252Z,8.4
2016-05-02T01:26:12.096Z,8.4
2016-05-02T01:26:22.239Z,8.4
2016-05-02T01:26:32.239Z,8.5
2016-05-02T01:26:42.254Z,8.4
2016-05-02T01:26:52.223Z,8.4
2016-05-02T01:27:02.239Z,8.4
2016-05-02T01:27:12.223Z,8.4
2016-05-02T01:27:22.227Z,8.4
2016-05-02T01:27:32.227Z,8.4
2016-05-02T01:27:42.196Z,8.4
2016-05-02T01:27:52.055Z,8.4
2016-05-02T01:28:02.196Z,8.4
2016-05-02T01:28:12.180Z,8.4
2016-05-02T01:28:22.214Z,8.4
2016-05-02T01:28:32.199Z,8.4
2016-05-02T01:28:42.168Z,8.4
2016-05-02T01:28:52.027Z,8.4
2016-05-02T01:29:02.152Z,8.4
2016-05-02T01:29:12.168Z,8.4
2016-05-02T01:29:22.171Z,8.4
2016-05-02T01:29:32.155Z,8.4
2016-05-02T01:29:42.155Z,8.4
2016-05-02T01:29:52.155Z,8.4
2016-05-02T01:30:02.139Z,8.4
2016-05-02T01:30:12.139Z,8.4
2016-05-02T01:30:21.967Z,8.4
2016-05-02T01:30:32.127Z,8.4
2016-05-02T01:30:42.111Z,8.4
2016-05-02T01:30:52.111Z,8.4
2016-05-02T01:31:01.955Z,8.4
2016-05-02T01:31:12.111Z,8.4
2016-05-02T01:31:22.099Z,8.4
2016-05-02T01:31:31.928Z,8.4
2016-05-02T01:31:42.084Z,8.4
2016-05-02T01:31:52.084Z,8.4
2016-05-02T01:32:02.084Z,8.4
2016-05-02T01:32:12.084Z,8.4
2016-05-02T01:32:22.068Z,8.4
2016-05-02T01:32:32.273Z,8.4
2016-05-02T01:32:42.258Z,8.4
2016-05-02T01:32:52.039Z,8.4
2016-05-02T01:33:02.055Z,8.4
2016-05-02T01:33:12.039Z,8.4
2016-05-02T01:33:22.039Z,8.4
2016-05-02T01:33:32.042Z,8.4
2016-05-02T01:33:41.886Z,8.4
2016-05-02T01:33:52.042Z,8.4
2016-05-02T01:34:02.011Z,8.4
2016-05-02T01:34:12.011Z,8.4
2016-05-02T01:34:21.995Z,8.4
2016-05-02T01:34:32.014Z,8.4
2016-05-02T01:34:41.842Z,8.4
2016-05-02T01:34:51.982Z,8.4
2016-05-02T01:35:01.998Z,8.4
2016-05-02T01:35:11.998Z,8.4
2016-05-02T01:35:21.982Z,8.4
2016-05-02T01:35:31.813Z,8.4
2016-05-02T01:35:41.953Z,8.4
2016-05-02T01:35:52.313Z,8.4
2016-05-02T01:36:01.844Z,8.4
2016-05-02T01:36:11.828Z,8.4
2016-05-02T01:36:22.203Z,8.4
2016-05-02T01:36:32.691Z,8.4
2016-05-02T01:36:41.941Z,8.4
2016-05-02T01:36:51.941Z,8.4
2016-05-02T01:37:01.769Z,8.4
2016-05-02T01:37:11.753Z,8.4
2016-05-02T01:37:21.597Z,8.4
2016-05-02T01:37:31.756Z,8.4
2016-05-02T01:37:41.912Z,8.4
2016-05-02T01:37:51.897Z,8.4
2016-05-02T01:38:01.897Z,8.4
2016-05-02T01:38:11.881Z,8.4
2016-05-02T01:38:21.881Z,8.4
2016-05-02T01:38:31.868Z,8.4
2016-05-02T01:38:41.884Z,8.4
2016-05-02T01:38:51.868Z,8.4
2016-05-02T01:39:01.868Z,8.4
2016-05-02T01:39:11.868Z,8.4
2016-05-02T01:39:21.712Z,8.4
2016-05-02T01:39:31.855Z,8.3
2016-05-02T01:39:41.683Z,8.4
2016-05-02T01:39:51.839Z,8.4
2016-05-02T01:40:01.667Z,8.4
2016-05-02T01:40:11.683Z,8.4
2016-05-02T01:40:21.808Z,8.3
2016-05-02T01:40:31.811Z,8.4
2016-05-02T01:40:41.827Z,8.4
2016-05-02T01:40:51.639Z,8.4
2016-05-02T01:41:01.795Z,8.3
2016-05-02T01:41:11.795Z,8.3
2016-05-02T01:41:21.780Z,8.3
2016-05-02T01:41:31.797Z,8.3
2016-05-02T01:41:41.782Z,8.3
2016-05-02T01:41:51.766Z,8.3
2016-05-02T01:42:01.782Z,8.3
2016-05-02T01:42:11.735Z,8.3
2016-05-02T01:42:21.750Z,8.3
2016-05-02T01:42:31.597Z,8.3
2016-05-02T01:42:41.753Z,8.3
2016-05-02T01:42:51.753Z,8.3
2016-05-02T01:43:01.597Z,8.3
2016-05-02T01:43:11.722Z,8.3
2016-05-02T01:43:21.722Z,8.3
2016-05-02T01:43:31.710Z,8.3
2016-05-02T01:43:41.710Z,8.3
2016-05-02T01:43:51.710Z,8.3
2016-05-02T01:44:01.710Z,8.4
2016-05-02T01:44:11.725Z,8.3
2016-05-02T01:44:21.694Z,8.3
2016-05-02T01:44:31.541Z,8.3
2016-05-02T01:44:41.681Z,8.3
2016-05-02T01:44:51.525Z,8.3
2016-05-02T01:45:01.666Z,8.3
2016-05-02T01:45:11.681Z,8.3
2016-05-02T01:45:21.666Z,8.3
2016-05-02T01:45:31.496Z,8.3
2016-05-02T01:45:41.652Z,8.3
2016-05-02T01:45:51.636Z,8.3
2016-05-02T01:46:01.636Z,8.3
2016-05-02T01:46:11.652Z,8.3
2016-05-02T01:46:21.621Z,8.3
2016-05-02T01:46:31.468Z,8.3
2016-05-02T01:46:41.624Z,8.3
2016-05-02T01:46:51.608Z,8.3
2016-05-02T01:47:01.624Z,8.3
2016-05-02T01:47:11.608Z,8.3
2016-05-02T01:47:21.452Z,8.3
2016-05-02T01:47:31.455Z,8.3
2016-05-02T01:47:41.439Z,8.3
2016-05-02T01:47:51.580Z,8.3
2016-05-02T01:48:01.424Z,8.3
2016-05-02T01:48:11.580Z,8.3
2016-05-02T01:48:21.408Z,8.3
2016-05-02T01:48:31.566Z,8.3
2016-05-02T01:48:41.566Z,8.3
2016-05-02T01:48:51.551Z,8.3
2016-05-02T01:49:01.551Z,8.3
2016-05-02T01:49:11.535Z,8.3
2016-05-02T01:49:21.535Z,8.3
2016-05-02T01:49:31.397Z,8.3
2016-05-02T01:49:41.507Z,8.3
2016-05-02T01:49:51.522Z,8.3
2016-05-02T01:50:01.522Z,8.3
2016-05-02T01:50:11.507Z,8.3
2016-05-02T01:50:21.351Z,8.2
2016-05-02T01:50:31.510Z,8.3
2016-05-02T01:50:41.494Z,8.3
2016-05-02T01:50:51.197Z,8.2
2016-05-02T01:51:01.182Z,8.2
2016-05-02T01:51:11.510Z,8.2
2016-05-02T01:51:21.479Z,8.2
2016-05-02T01:51:31.341Z,8.2
2016-05-02T01:51:41.466Z,8.2
2016-05-02T01:51:51.482Z,8.2
2016-05-02T01:52:01.450Z,8.2
2016-05-02T01:52:11.435Z,8.2
2016-05-02T01:52:21.435Z,8.2
2016-05-02T01:52:31.437Z,8.2
2016-05-02T01:52:41.437Z,8.2
2016-05-02T01:52:51.452Z,8.2
2016-05-02T01:53:01.452Z,8.2
2016-05-02T01:53:11.421Z,8.2
2016-05-02T01:53:21.437Z,8.2
2016-05-02T01:53:31.393Z,8.2
2016-05-02T01:53:41.252Z,8.2
2016-05-02T01:53:51.393Z,8.2
2016-05-02T01:54:01.393Z,8.2
2016-05-02T01:54:11.408Z,8.2
2016-05-02T01:54:21.393Z,8.2
2016-05-02T01:54:31.379Z,8.2
2016-05-02T01:54:41.364Z,8.2
2016-05-02T01:54:51.379Z,8.2
2016-05-02T01:55:01.207Z,8.2
2016-05-02T01:55:11.192Z,8.2
2016-05-02T01:55:21.364Z,8.2
2016-05-02T01:55:31.195Z,8.2
2016-05-02T01:55:41.335Z,8.2
2016-05-02T01:55:51.351Z,8.2
2016-05-02T01:56:01.335Z,8.2
2016-05-02T01:56:11.179Z,8.2
2016-05-02T01:56:21.320Z,8.2
2016-05-02T01:56:31.307Z,8.2
2016-05-02T01:56:41.307Z,8.2
2016-05-02T01:56:51.291Z,8.2
2016-05-02T01:57:01.135Z,8.2
2016-05-02T01:57:11.291Z,8.2
2016-05-02T01:57:21.291Z,8.2
2016-05-02T01:57:31.294Z,8.2
2016-05-02T01:57:41.279Z,8.2
2016-05-02T01:57:51.279Z,8.2
2016-05-02T01:58:01.107Z,8.2
2016-05-02T01:58:11.248Z,8.2
2016-05-02T01:58:21.248Z,8.2
2016-05-02T01:58:31.265Z,8.2
2016-05-02T01:58:41.250Z,8.2
2016-05-02T01:58:51.234Z,8.2
2016-05-02T01:59:01.093Z,8.2
2016-05-02T01:59:11.234Z,8.2
2016-05-02T01:59:21.218Z,8.2
2016-05-02T01:59:31.081Z,8.2
2016-05-02T01:59:41.221Z,8.2
2016-05-02T01:59:51.206Z,8.2
2016-05-02T02:00:01.206Z,8.2
2016-05-02T02:00:11.034Z,8.2
2016-05-02T02:00:21.206Z,8.2
2016-05-02T02:00:31.193Z,8.2
2016-05-02T02:00:41.021Z,8.2
2016-05-02T02:00:51.193Z,8.2
2016-05-02T02:01:01.193Z,8.2
2016-05-02T02:01:11.177Z,8.2
2016-05-02T02:01:21.006Z,8.2
2016-05-02T02:01:31.164Z,8.2
2016-05-02T02:01:41.008Z,8.2
2016-05-02T02:01:51.164Z,8.2
2016-05-02T02:02:01.148Z,8.2
2016-05-02T02:02:11.148Z,8.2
2016-05-02T02:02:21.133Z,8.2
2016-05-02T02:02:30.964Z,8.2
2016-05-02T02:02:41.136Z,8.2
2016-05-02T02:02:51.120Z,8.2
2016-05-02T02:03:00.964Z,8.1
2016-05-02T02:03:10.948Z,8.1
2016-05-02T02:03:21.104Z,8.2
2016-05-02T02:03:31.092Z,8.2
2016-05-02T02:03:41.092Z,8.1
2016-05-02T02:03:50.935Z,8.1
2016-05-02T02:04:01.076Z,8.1
2016-05-02T02:04:11.076Z,8.2
2016-05-02T02:04:20.920Z,8.1
2016-05-02T02:04:30.937Z,8.1
2016-05-02T02:04:41.078Z,8.1
2016-05-02T02:04:51.047Z,8.1
2016-05-02T02:05:01.047Z,8.1
2016-05-02T02:05:11.047Z,8.1
2016-05-02T02:05:21.047Z,8.1
2016-05-02T02:05:31.050Z,8.1
2016-05-02T02:05:41.034Z,8.1
2016-05-02T02:05:51.550Z,8.1
2016-05-02T02:06:00.894Z,8.1
2016-05-02T02:06:10.878Z,8.1
2016-05-02T02:06:20.862Z,8.1
2016-05-02T02:06:31.912Z,8.1
2016-05-02T02:06:40.865Z,8.1
2016-05-02T02:06:50.975Z,8.1
2016-05-02T02:07:00.990Z,8.1
2016-05-02T02:07:10.975Z,8.1
2016-05-02T02:07:20.975Z,8.1
2016-05-02T02:07:30.977Z,8.1
2016-05-02T02:07:40.961Z,8.1
2016-05-02T02:07:50.961Z,8.1
2016-05-02T02:08:00.961Z,8.1
2016-05-02T02:08:10.945Z,8.1
2016-05-02T02:08:20.945Z,8.1
2016-05-02T02:08:30.948Z,8.1
2016-05-02T02:08:40.933Z,8.1
2016-05-02T02:08:50.948Z,8.1
2016-05-02T02:09:00.933Z,8.1
2016-05-02T02:09:10.777Z,8.1
2016-05-02T02:09:20.917Z,8.1
2016-05-02T02:09:30.905Z,8.1
2016-05-02T02:09:40.920Z,8.1
2016-05-02T02:09:50.764Z,8.1
2016-05-02T02:10:00.905Z,8.1
2016-05-02T02:10:10.905Z,8.1
2016-05-02T02:10:20.889Z,8.1
2016-05-02T02:10:30.875Z,8.1
2016-05-02T02:10:40.875Z,8.1
2016-05-02T02:10:50.860Z,8.1
2016-05-02T02:11:00.860Z,8.1
2016-05-02T02:11:10.860Z,8.1
2016-05-02T02:11:20.860Z,8.1
2016-05-02T02:11:30.863Z,8.1
2016-05-02T02:11:40.863Z,8.1
2016-05-02T02:11:50.831Z,8.1
2016-05-02T02:12:00.816Z,8.1
2016-05-02T02:12:10.816Z,8.1
2016-05-02T02:12:20.816Z,8.1
2016-05-02T02:12:30.819Z,8.1
2016-05-02T02:12:40.803Z,8.1
2016-05-02T02:12:50.819Z,8.1
2016-05-02T02:13:00.647Z,8.1
2016-05-02T02:13:10.803Z,8.1
2016-05-02T02:13:20.788Z,8.1
2016-05-02T02:13:30.634Z,8.1
2016-05-02T02:13:40.775Z,8.1
2016-05-02T02:13:50.775Z,8.1
2016-05-02T02:14:00.619Z,8.1
2016-05-02T02:14:10.744Z,8.1
2016-05-02T02:14:20.759Z,8.1
2016-05-02T02:14:30.761Z,8.1
2016-05-02T02:14:40.746Z,8.1
2016-05-02T02:14:50.746Z,8.1
2016-05-02T02:15:00.589Z,8.1
2016-05-02T02:15:10.574Z,8.1
2016-05-02T02:15:20.730Z,8.1
2016-05-02T02:15:30.717Z,8.1
2016-05-02T02:15:40.717Z,8.1
2016-05-02T02:15:50.717Z,8.1
2016-05-02T02:16:00.717Z,8.1
2016-05-02T02:16:10.717Z,8.1
2016-05-02T02:16:20.686Z,8.1
2016-05-02T02:16:30.548Z,8
2016-05-02T02:16:40.516Z,8
2016-05-02T02:16:50.376Z,8
2016-05-02T02:17:00.673Z,8
2016-05-02T02:17:10.673Z,8
2016-05-02T02:17:20.657Z,8.1
2016-05-02T02:17:30.504Z,8
2016-05-02T02:17:40.644Z,8
2016-05-02T02:17:50.644Z,8
2016-05-02T02:18:00.629Z,8
2016-05-02T02:18:10.660Z,8
2016-05-02T02:18:20.629Z,8
2016-05-02T02:18:30.632Z,8